Time;durP1;ratioP1;P1;durP2;ratioP2;P2;SDS_P1;SDS_P2;PMS_P1;PMS_P2;Temp;Humidity;BMP_temperature;BMP_pressure;BME280_temperature;BME280_humidity;BME280_pressure;Samples;Min_cycle;Max_cycle;Signal;HPM_P1;HPM_P2
2023/03/10 00:01:21;;;;;;;4.28;1.30;;;10.10;57.90;;;;;;5056905;28;20013;-76
2023/03/10 00:03:47;;;;;;;4.65;1.10;;;10.20;57.90;;;;;;5058065;28;20040;-75
2023/03/10 00:06:15;;;;;;;2.83;0.98;;;10.10;58.10;;;;;;5058585;28;20029;-76
2023/03/10 00:08:41;;;;;;;5.55;1.27;;;10.20;58.60;;;;;;5059754;28;20025;-76
2023/03/10 00:11:07;;;;;;;4.70;1.10;;;10.20;58.70;;;;;;5059342;28;20437;-75
2023/03/10 00:13:33;;;;;;;3.97;1.30;;;10.20;58.50;;;;;;5058830;28;20029;-76
2023/03/10 00:15:58;;;;;;;6.07;1.15;;;10.30;58.50;;;;;;5056993;28;20021;-76
2023/03/10 00:18:24;;;;;;;3.30;1.10;;;10.30;58.40;;;;;;5056700;28;20096;-77
2023/03/10 00:20:51;;;;;;;5.53;1.13;;;10.40;58.20;;;;;;5056321;28;20025;-75
2023/03/10 00:23:17;;;;;;;5.45;1.15;;;10.30;57.90;;;;;;5056437;28;20056;-76
2023/03/10 00:25:43;;;;;;;4.93;1.33;;;10.30;57.90;;;;;;5056973;28;20033;-75
2023/03/10 00:28:08;;;;;;;3.95;0.95;;;10.30;58.40;;;;;;5055828;28;20052;-75
2023/03/10 00:30:34;;;;;;;5.72;1.60;;;10.20;58.60;;;;;;5057181;28;20064;-75
2023/03/10 00:33:01;;;;;;;4.57;1.25;;;10.20;58.60;;;;;;5059136;28;20036;-75
2023/03/10 00:35:26;;;;;;;3.92;1.20;;;10.10;59.00;;;;;;5057246;28;20029;-75
2023/03/10 00:37:53;;;;;;;4.97;1.17;;;10.10;59.20;;;;;;5058728;28;20402;-75
2023/03/10 00:40:19;;;;;;;9.07;2.05;;;10.10;59.30;;;;;;5057582;28;20021;-76
2023/03/10 00:42:45;;;;;;;6.00;1.23;;;10.10;59.40;;;;;;5055964;28;20029;-75
2023/03/10 00:45:10;;;;;;;6.35;1.60;;;10.30;58.60;;;;;;5057219;28;20025;-74
2023/03/10 00:47:36;;;;;;;6.80;1.25;;;10.40;58.00;;;;;;5055888;28;20036;-75
2023/03/10 00:50:01;;;;;;;6.93;1.52;;;10.70;57.20;;;;;;5056624;28;20033;-75
2023/03/10 00:52:31;;;;;;;6.55;1.42;;;10.80;56.60;;;;;;5055018;28;20021;-75
2023/03/10 00:54:56;;;;;;;3.88;1.15;;;10.90;55.80;;;;;;5057114;28;20033;-75
2023/03/10 00:57:22;;;;;;;4.57;0.90;;;11.00;55.50;;;;;;5037822;28;20025;-75
2023/03/10 00:59:51;;;;;;;6.70;1.15;;;11.10;55.80;;;;;;5055005;28;20021;-74
2023/03/10 01:02:20;;;;;;;5.47;1.52;;;11.10;55.50;;;;;;5054387;28;20036;-74
2023/03/10 01:04:46;;;;;;;5.55;1.35;;;11.20;55.50;;;;;;5055034;28;20037;-74
2023/03/10 01:07:12;;;;;;;2.85;1.08;;;11.20;55.80;;;;;;5055254;28;20078;-74
2023/03/10 01:09:37;;;;;;;4.90;1.05;;;11.10;56.30;;;;;;5055986;28;20033;-74
2023/03/10 01:12:03;;;;;;;4.28;1.15;;;11.10;56.70;;;;;;5054994;28;20036;-76
2023/03/10 01:14:30;;;;;;;7.32;1.50;;;11.00;57.50;;;;;;5038611;28;20107;-75
2023/03/10 01:16:56;;;;;;;3.15;1.02;;;10.90;57.60;;;;;;5057094;28;20017;-75
2023/03/10 01:19:21;;;;;;;3.90;1.00;;;10.80;58.10;;;;;;5054891;28;20421;-75
2023/03/10 01:21:47;;;;;;;5.88;0.93;;;10.80;58.50;;;;;;5054327;28;20485;-75
2023/03/10 01:24:14;;;;;;;6.40;1.13;;;10.70;58.70;;;;;;5054156;28;20031;-75
2023/03/10 01:26:40;;;;;;;2.90;1.20;;;10.70;58.80;;;;;;5054410;28;20116;-76
2023/03/10 01:29:05;;;;;;;5.03;0.88;;;10.70;59.30;;;;;;5054272;28;20078;-75
2023/03/10 01:31:31;;;;;;;2.90;0.75;;;10.70;59.60;;;;;;5036388;28;20041;-75
2023/03/10 01:33:57;;;;;;;2.20;0.73;;;10.60;60.20;;;;;;5055668;28;20017;-75
2023/03/10 01:36:25;;;;;;;2.65;0.60;;;10.60;61.70;;;;;;5054777;28;20044;-76
2023/03/10 01:38:52;;;;;;;3.20;0.50;;;10.40;62.90;;;;;;5053571;28;20079;-74
2023/03/10 01:41:18;;;;;;;2.00;0.60;;;10.30;63.60;;;;;;5053638;28;20028;-74
2023/03/10 01:43:47;;;;;;;2.50;0.80;;;10.30;65.10;;;;;;5054658;28;20027;-76
2023/03/10 01:46:57;;;;;;;3.08;0.80;;;10.20;65.80;;;;;;5054537;28;20436;-76
2023/03/10 01:49:41;;;;;;;3.53;0.82;;;10.10;66.50;;;;;;5038417;28;20032;-75
2023/03/10 01:52:13;;;;;;;2.22;0.63;;;10.00;66.80;;;;;;5054363;28;20028;-75
2023/03/10 01:54:45;;;;;;;3.00;0.57;;;9.90;67.50;;;;;;5055378;28;20025;-75
2023/03/10 01:57:12;;;;;;;2.03;0.70;;;9.80;68.30;;;;;;5055745;28;20040;-76
2023/03/10 01:59:39;;;;;;;2.03;0.73;;;9.90;68.40;;;;;;5057824;28;20035;-77
2023/03/10 02:02:05;;;;;;;1.17;0.50;;;9.80;68.90;;;;;;5056103;28;20493;-75
2023/03/10 02:04:35;;;;;;;4.55;0.85;;;9.80;70.00;;;;;;5057724;28;20064;-76
2023/03/10 02:07:04;;;;;;;2.35;0.60;;;9.70;70.90;;;;;;5054406;28;20079;-77
2023/03/10 02:09:31;;;;;;;1.73;0.50;;;9.60;71.10;;;;;;5054115;28;20036;-77
2023/03/10 02:11:58;;;;;;;2.05;0.28;;;9.60;72.00;;;;;;5054516;28;20037;-76
2023/03/10 02:14:24;;;;;;;1.73;0.22;;;9.40;72.50;;;;;;5054106;28;20078;-76
2023/03/10 02:16:50;;;;;;;0.45;0.35;;;9.30;73.70;;;;;;5053403;28;20033;-76
2023/03/10 02:19:34;;;;;;;0.30;0.30;;;9.30;73.40;;;;;;5053263;28;20419;-76
2023/03/10 02:22:08;;;;;;;2.03;0.40;;;9.20;73.60;;;;;;5053495;28;20017;-76
2023/03/10 02:25:08;;;;;;;2.15;0.55;;;9.20;73.60;;;;;;5054239;28;20025;-76
2023/03/10 02:27:35;;;;;;;0.60;0.22;;;9.20;74.50;;;;;;5058238;28;20497;-76
2023/03/10 02:30:21;;;;;;;0.45;0.20;;;9.10;75.60;;;;;;5057619;28;20470;-76
2023/03/10 02:32:48;;;;;;;;;;;9.10;74.50;;;;;;5059106;28;20513;-75
2023/03/10 02:35:14;;;;;;;0.90;0.20;;;9.00;74.20;;;;;;5058110;28;19904;-76
2023/03/10 02:37:40;;;;;;;0.10;0.10;;;9.00;74.60;;;;;;5057708;28;20029;-76
2023/03/10 02:40:30;;;;;;;0.00;0.00;;;9.00;75.00;;;;;;5057396;28;20029;-75
2023/03/10 02:42:57;;;;;;;0.63;0.10;;;9.00;75.60;;;;;;5059084;28;20033;-76
2023/03/10 02:45:32;;;;;;;0.30;0.10;;;9.00;74.90;;;;;;5059208;28;20108;-76
2023/03/10 02:47:57;;;;;;;0.15;0.13;;;8.90;76.00;;;;;;5056450;28;20055;-76
2023/03/10 02:50:27;;;;;;;0.10;0.10;;;8.90;75.90;;;;;;5056242;28;20126;-75
2023/03/10 02:53:09;;;;;;;0.98;0.25;;;8.90;75.70;;;;;;5056370;28;20029;-75
2023/03/10 02:55:34;;;;;;;1.15;0.40;;;8.90;76.40;;;;;;5038355;28;20059;-75
2023/03/10 02:58:01;;;;;;;1.48;0.43;;;8.90;77.20;;;;;;5056272;28;20021;-75
2023/03/10 03:00:28;;;;;;;0.77;0.20;;;8.90;77.00;;;;;;5056172;28;20017;-75
2023/03/10 03:02:53;;;;;;;0.80;0.20;;;8.80;77.30;;;;;;5056155;28;20032;-76
2023/03/10 03:05:19;;;;;;;0.82;0.28;;;8.90;78.60;;;;;;5055896;28;20045;-75
2023/03/10 03:07:44;;;;;;;1.38;0.30;;;8.80;79.00;;;;;;5055941;28;20446;-75
2023/03/10 03:10:11;;;;;;;2.60;0.40;;;8.90;79.20;;;;;;5055939;28;20474;-75
2023/03/10 03:12:36;;;;;;;1.02;0.45;;;8.90;78.70;;;;;;5055968;28;20036;-76
2023/03/10 03:15:02;;;;;;;1.85;0.40;;;8.90;78.20;;;;;;5055951;28;20029;-78
2023/03/10 03:17:28;;;;;;;1.15;0.50;;;9.00;77.60;;;;;;5055809;28;20021;-76
2023/03/10 03:19:53;;;;;;;1.25;0.30;;;9.00;76.90;;;;;;5055813;28;20043;-75
2023/03/10 03:22:19;;;;;;;6.10;0.80;;;9.10;76.80;;;;;;5037767;28;20025;-75
2023/03/10 03:24:44;;;;;;;2.40;0.38;;;9.20;76.80;;;;;;5055756;28;20461;-75
2023/03/10 03:27:10;;;;;;;1.30;0.50;;;9.10;77.60;;;;;;5055532;28;20470;-75
2023/03/10 03:29:35;;;;;;;1.63;0.57;;;9.10;78.10;;;;;;5055569;28;20059;-76
2023/03/10 03:32:01;;;;;;;3.25;0.52;;;9.00;78.20;;;;;;5055672;28;20040;-76
2023/03/10 03:34:26;;;;;;;2.83;0.55;;;9.00;78.00;;;;;;5055534;28;20032;-73
2023/03/10 03:36:52;;;;;;;4.30;0.57;;;9.00;79.00;;;;;;5055392;28;20082;-74
2023/03/10 03:39:17;;;;;;;0.73;0.30;;;8.90;79.70;;;;;;5055387;28;20469;-74
2023/03/10 03:41:43;;;;;;;0.57;0.30;;;8.90;78.80;;;;;;5055232;28;20021;-75
2023/03/10 03:44:09;;;;;;;2.50;0.50;;;9.00;79.20;;;;;;5037581;28;20122;-82
2023/03/10 03:46:34;;;;;;;2.53;0.60;;;9.00;77.60;;;;;;5055334;28;20083;-76
2023/03/10 03:49:00;;;;;;;3.63;0.70;;;9.00;77.50;;;;;;5055422;28;20049;-74
2023/03/10 03:51:26;;;;;;;2.35;0.50;;;9.10;76.10;;;;;;5055042;28;20039;-77
2023/03/10 03:53:52;;;;;;;2.83;0.60;;;9.10;76.10;;;;;;5055218;28;20024;-74
2023/03/10 03:56:17;;;;;;;2.28;0.60;;;9.10;76.30;;;;;;5037289;28;20071;-73
2023/03/10 03:58:43;;;;;;;1.35;0.45;;;9.10;75.90;;;;;;5055147;28;20025;-74
2023/03/10 04:01:09;;;;;;;2.95;0.65;;;9.10;76.50;;;;;;5055120;28;20381;-73
2023/03/10 04:03:34;;;;;;;2.72;0.68;;;9.10;76.30;;;;;;5055248;28;20083;-74
2023/03/10 04:06:00;;;;;;;2.38;0.40;;;9.00;76.60;;;;;;5054999;28;20059;-73
2023/03/10 04:08:26;;;;;;;1.95;0.50;;;9.00;75.30;;;;;;5055039;28;20025;-75
2023/03/10 04:10:53;;;;;;;1.67;0.70;;;9.00;77.20;;;;;;5054834;28;20078;-81
2023/03/10 04:13:20;;;;;;;1.73;0.50;;;9.00;77.10;;;;;;5036976;28;20386;-75
2023/03/10 04:15:45;;;;;;;3.40;0.57;;;9.00;76.70;;;;;;5054828;28;20033;-81
2023/03/10 04:18:12;;;;;;;3.60;0.50;;;9.00;76.50;;;;;;5054774;28;20025;-74
2023/03/10 04:20:37;;;;;;;2.65;0.50;;;9.10;75.40;;;;;;5054659;28;20123;-80
2023/03/10 04:23:03;;;;;;;2.65;0.63;;;9.10;75.10;;;;;;5054698;28;20535;-81
2023/03/10 04:25:29;;;;;;;4.03;0.65;;;9.10;74.70;;;;;;5054518;28;20100;-75
2023/03/10 04:27:56;;;;;;;1.17;0.30;;;9.10;74.40;;;;;;5054570;28;20025;-81
2023/03/10 04:30:27;;;;;;;3.78;0.80;;;9.10;74.50;;;;;;5054446;28;20033;-80
2023/03/10 04:32:59;;;;;;;1.48;0.65;;;9.00;74.60;;;;;;5054512;28;20028;-80
2023/03/10 04:35:25;;;;;;;2.75;0.50;;;9.00;75.30;;;;;;5054515;28;20021;-82
2023/03/10 04:37:51;;;;;;;1.02;0.52;;;9.00;76.20;;;;;;5054248;28;20083;-81
2023/03/10 04:40:17;;;;;;;1.13;0.50;;;8.90;76.50;;;;;;5054227;28;20025;-83
2023/03/10 04:42:42;;;;;;;2.97;0.60;;;9.00;76.90;;;;;;5054204;28;20021;-82
2023/03/10 04:45:09;;;;;;;2.63;0.65;;;9.00;75.60;;;;;;5054247;28;20021;-82
2023/03/10 04:47:34;;;;;;;3.10;0.70;;;9.00;75.80;;;;;;5035496;28;20496;-75
2023/03/10 04:50:00;;;;;;;4.45;0.45;;;9.00;75.90;;;;;;5053962;28;20057;-75
2023/03/10 04:52:25;;;;;;;1.58;0.60;;;9.00;76.00;;;;;;5053744;28;20076;-75
2023/03/10 04:54:51;;;;;;;1.52;0.73;;;8.90;75.90;;;;;;5053644;28;20106;-75
2023/03/10 04:57:16;;;;;;;2.13;0.60;;;8.90;76.10;;;;;;5053885;28;20029;-75
2023/03/10 04:59:42;;;;;;;2.70;0.60;;;8.90;76.40;;;;;;5053883;28;20032;-75
2023/03/10 05:02:08;;;;;;;1.52;0.40;;;8.80;76.80;;;;;;5053820;28;20021;-75
2023/03/10 05:04:33;;;;;;;2.28;0.47;;;8.80;76.50;;;;;;5053623;28;20082;-82
2023/03/10 05:06:59;;;;;;;0.60;0.30;;;8.80;76.60;;;;;;5053977;28;20032;-78
2023/03/10 05:09:24;;;;;;;0.75;0.30;;;8.90;76.60;;;;;;5053948;28;20516;-79
2023/03/10 05:11:50;;;;;;;0.68;0.50;;;8.90;76.90;;;;;;5053834;28;20040;-83
2023/03/10 05:14:16;;;;;;;1.33;0.47;;;8.90;76.90;;;;;;5053542;28;20025;-75
2023/03/10 05:16:42;;;;;;;1.20;0.38;;;9.00;77.30;;;;;;5053438;28;20440;-75
2023/03/10 05:19:08;;;;;;;1.55;0.30;;;8.90;77.20;;;;;;5053569;28;20025;-75
2023/03/10 05:21:33;;;;;;;0.50;0.30;;;8.90;78.20;;;;;;5035509;28;20071;-74
2023/03/10 05:23:59;;;;;;;1.20;0.38;;;8.90;79.10;;;;;;5053449;28;20029;-74
2023/03/10 05:26:26;;;;;;;0.85;0.30;;;8.90;78.50;;;;;;5053417;28;20098;-74
2023/03/10 05:28:51;;;;;;;1.17;0.40;;;8.90;79.10;;;;;;5053155;28;20033;-74
2023/03/10 05:31:24;;;;;;;0.30;0.30;;;8.80;79.80;;;;;;5052781;28;20496;-74
2023/03/10 05:33:50;;;;;;;1.38;0.30;;;8.70;80.50;;;;;;5053067;28;20531;-74
2023/03/10 05:36:15;;;;;;;1.33;0.38;;;8.70;80.40;;;;;;5053052;28;20034;-73
2023/03/10 05:38:41;;;;;;;0.30;0.20;;;8.70;81.40;;;;;;5052963;28;20032;-73
2023/03/10 05:41:08;;;;;;;1.33;0.35;;;8.70;79.10;;;;;;5052817;28;20078;-75
2023/03/10 05:43:34;;;;;;;1.30;0.40;;;8.70;79.70;;;;;;5052939;28;20063;-74
2023/03/10 05:46:00;;;;;;;0.20;0.20;;;8.60;80.50;;;;;;5053130;28;20084;-74
2023/03/10 05:48:26;;;;;;;0.82;0.60;;;8.60;81.10;;;;;;5035246;28;20386;-74
2023/03/10 05:51:02;;;;;;;0.40;0.20;;;8.50;80.40;;;;;;5053113;28;20033;-74
2023/03/10 05:53:29;;;;;;;0.88;0.30;;;8.60;78.60;;;;;;5053500;28;20025;-75
2023/03/10 05:55:55;;;;;;;0.95;0.40;;;8.60;79.90;;;;;;5055898;28;20036;-75
2023/03/10 05:58:21;;;;;;;0.10;0.10;;;8.60;80.40;;;;;;5053146;28;20489;-74
2023/03/10 06:00:47;;;;;;;1.13;0.20;;;8.60;79.90;;;;;;5054215;28;20024;-74
2023/03/10 06:03:13;;;;;;;0.13;0.13;;;8.60;79.70;;;;;;5057719;28;20108;-74
2023/03/10 06:05:38;;;;;;;0.60;0.30;;;8.60;78.50;;;;;;5054947;28;20045;-74
2023/03/10 06:08:04;;;;;;;1.95;0.40;;;8.60;78.50;;;;;;5052998;28;20025;-75
2023/03/10 06:10:30;;;;;;;0.88;0.30;;;8.60;78.20;;;;;;5052739;28;20021;-75
2023/03/10 06:12:55;;;;;;;0.50;0.30;;;8.60;78.40;;;;;;5053212;28;20033;-75
2023/03/10 06:15:21;;;;;;;1.65;0.38;;;8.60;78.70;;;;;;5052863;28;20021;-74
2023/03/10 06:17:47;;;;;;;3.05;0.43;;;8.60;78.10;;;;;;5052396;28;20025;-74
2023/03/10 06:20:13;;;;;;;2.42;0.60;;;8.70;75.80;;;;;;5052344;28;20029;-77
2023/03/10 06:22:39;;;;;;;2.10;0.43;;;8.80;75.00;;;;;;5052466;28;20099;-74
2023/03/10 06:25:05;;;;;;;1.95;0.40;;;8.80;75.00;;;;;;5052635;28;20100;-76
2023/03/10 06:27:31;;;;;;;1.27;0.50;;;8.80;74.40;;;;;;5052472;28;20033;-76
2023/03/10 06:29:56;;;;;;;1.60;0.57;;;8.90;75.00;;;;;;5052155;28;20029;-75
2023/03/10 06:32:22;;;;;;;4.25;0.63;;;8.90;74.60;;;;;;5052196;28;20599;-76
2023/03/10 06:34:47;;;;;;;2.63;0.60;;;8.90;74.20;;;;;;5052176;28;20085;-76
2023/03/10 06:37:13;;;;;;;1.77;0.40;;;8.90;75.10;;;;;;5034320;28;20470;-76
2023/03/10 06:39:39;;;;;;;2.15;0.30;;;9.00;75.00;;;;;;5052146;28;20479;-76
2023/03/10 06:42:05;;;;;;;2.08;0.45;;;9.00;75.30;;;;;;5052231;28;20060;-76
2023/03/10 06:44:31;;;;;;;5.38;0.80;;;9.00;72.90;;;;;;5052118;28;20017;-76
2023/03/10 06:46:56;;;;;;;1.00;0.45;;;9.00;73.80;;;;;;5052162;28;20115;-76
2023/03/10 06:49:26;;;;;;;1.85;0.45;;;9.10;74.60;;;;;;5052170;28;20017;-76
2023/03/10 06:51:52;;;;;;;2.70;0.50;;;9.00;74.20;;;;;;5052124;28;20036;-76
2023/03/10 06:54:18;;;;;;;6.03;0.70;;;9.00;73.30;;;;;;5034169;28;20466;-76
2023/03/10 06:56:43;;;;;;;1.80;0.40;;;9.00;74.10;;;;;;5052179;28;20543;-75
2023/03/10 06:59:09;;;;;;;2.40;0.50;;;9.00;72.80;;;;;;5051874;28;20025;-76
2023/03/10 07:01:34;;;;;;;0.80;0.30;;;9.00;73.80;;;;;;5034231;28;20033;-76
2023/03/10 07:04:00;;;;;;;1.50;0.45;;;9.10;72.80;;;;;;5051857;28;20385;-76
2023/03/10 07:06:26;;;;;;;2.15;0.30;;;9.10;72.30;;;;;;5051959;28;20036;-75
2023/03/10 07:08:53;;;;;;;2.38;0.30;;;9.10;71.50;;;;;;5033851;28;20043;-77
2023/03/10 07:11:19;;;;;;;1.05;0.30;;;9.10;72.20;;;;;;5053646;28;20036;-75
2023/03/10 07:13:44;;;;;;;1.95;0.40;;;9.20;71.40;;;;;;5055613;28;20055;-75
2023/03/10 07:16:10;;;;;;;1.65;0.47;;;9.20;71.60;;;;;;5055634;28;20037;-76
2023/03/10 07:18:35;;;;;;;0.73;0.30;;;9.20;71.40;;;;;;5055505;28;20028;-76
2023/03/10 07:21:05;;;;;;;0.82;0.20;;;9.20;71.40;;;;;;5055372;28;20151;-76
2023/03/10 07:23:32;;;;;;;1.40;0.50;;;9.20;72.50;;;;;;5037267;28;20021;-76
2023/03/10 07:25:58;;;;;;;3.42;0.25;;;9.20;72.50;;;;;;5055453;28;20032;-75
2023/03/10 07:28:25;;;;;;;1.00;0.30;;;9.30;72.90;;;;;;5055278;28;20025;-74
2023/03/10 07:30:51;;;;;;;0.22;0.22;;;9.20;72.50;;;;;;5055541;28;20037;-75
2023/03/10 07:33:17;;;;;;;0.60;0.20;;;9.30;73.10;;;;;;5055464;28;20079;-74
2023/03/10 07:35:43;;;;;;;2.75;0.50;;;9.20;73.70;;;;;;5055462;28;20039;-75
2023/03/10 07:38:08;;;;;;;2.67;0.70;;;9.10;73.90;;;;;;5055282;28;20095;-76
2023/03/10 07:40:34;;;;;;;1.05;0.30;;;9.10;75.60;;;;;;5055199;28;20357;-74
2023/03/10 07:43:00;;;;;;;1.63;0.40;;;9.00;74.40;;;;;;5055343;28;20067;-74
2023/03/10 07:45:27;;;;;;;1.10;0.45;;;9.00;76.50;;;;;;5055106;28;20071;-75
2023/03/10 07:47:53;;;;;;;0.93;0.30;;;8.90;75.70;;;;;;5054835;28;20107;-74
2023/03/10 07:50:19;;;;;;;2.80;0.30;;;8.70;77.10;;;;;;5054625;28;20029;-74
2023/03/10 07:52:45;;;;;;;1.05;0.30;;;8.70;77.60;;;;;;5054760;28;20029;-75
2023/03/10 07:55:11;;;;;;;1.85;0.30;;;8.70;76.60;;;;;;5054989;28;20408;-74
2023/03/10 07:57:36;;;;;;;0.43;0.30;;;8.60;76.40;;;;;;5054829;28;20150;-74
2023/03/10 08:00:04;;;;;;;1.45;0.47;;;8.60;77.80;;;;;;5054472;28;20562;-75
2023/03/10 08:02:30;;;;;;;2.28;0.55;;;8.50;78.10;;;;;;5054529;28;20028;-73
2023/03/10 08:04:55;;;;;;;1.02;0.52;;;8.50;78.40;;;;;;5054522;28;20053;-74
2023/03/10 08:07:21;;;;;;;1.02;0.20;;;8.40;77.10;;;;;;5036578;28;20021;-74
2023/03/10 08:09:50;;;;;;;1.05;0.20;;;8.40;77.30;;;;;;5054328;28;20038;-74
2023/03/10 08:12:17;;;;;;;2.10;0.47;;;8.40;75.90;;;;;;5054667;28;20025;-75
2023/03/10 08:14:42;;;;;;;0.17;0.17;;;8.40;78.10;;;;;;5036452;28;20021;-75
2023/03/10 08:17:08;;;;;;;1.98;0.28;;;8.40;76.90;;;;;;5054416;28;20103;-74
2023/03/10 08:19:33;;;;;;;1.60;0.40;;;8.30;76.30;;;;;;5054537;28;20430;-73
2023/03/10 08:22:00;;;;;;;1.17;0.38;;;8.40;76.60;;;;;;5053662;28;20037;-73
2023/03/10 08:24:27;;;;;;;2.15;0.20;;;8.40;76.50;;;;;;5054074;28;20021;-75
2023/03/10 08:26:52;;;;;;;0.57;0.20;;;8.40;75.20;;;;;;5054243;28;20029;-75
2023/03/10 08:29:18;;;;;;;1.67;0.30;;;8.40;74.50;;;;;;5054192;28;20033;-74
2023/03/10 08:31:44;;;;;;;2.22;0.45;;;8.50;74.10;;;;;;5054038;28;20470;-74
2023/03/10 08:34:09;;;;;;;2.10;0.50;;;8.50;74.10;;;;;;5054022;28;20032;-74
2023/03/10 08:36:35;;;;;;;2.03;0.40;;;8.50;73.20;;;;;;5054159;28;20033;-74
2023/03/10 08:39:04;;;;;;;3.35;0.63;;;8.60;73.20;;;;;;5053998;28;20021;-73
2023/03/10 08:41:35;;;;;;;3.33;0.70;;;8.60;71.10;;;;;;5053780;28;20127;-74
2023/03/10 08:44:02;;;;;;;2.60;0.25;;;8.90;71.40;;;;;;5053841;28;20031;-75
2023/03/10 08:46:30;;;;;;;0.60;0.30;;;9.20;69.70;;;;;;5036457;28;20376;-74
2023/03/10 08:48:56;;;;;;;3.22;0.47;;;9.40;69.30;;;;;;5035988;28;20021;-74
2023/03/10 08:51:23;;;;;;;4.03;0.40;;;9.30;68.30;;;;;;5053871;28;20047;-74
2023/03/10 08:53:50;;;;;;;1.65;0.63;;;9.30;67.90;;;;;;5053906;28;20029;-76
2023/03/10 08:56:17;;;;;;;3.13;0.73;;;9.40;68.10;;;;;;5053724;28;20087;-74
2023/03/10 08:58:43;;;;;;;3.25;0.70;;;9.50;66.60;;;;;;5053745;28;20021;-73
2023/03/10 09:01:09;;;;;;;2.90;0.70;;;9.60;66.10;;;;;;5053758;28;20465;-73
2023/03/10 09:03:36;;;;;;;3.67;0.70;;;9.90;66.50;;;;;;5053716;28;20057;-73
2023/03/10 09:06:02;;;;;;;2.67;0.80;;;9.90;65.30;;;;;;5035576;28;20389;-73
2023/03/10 09:08:28;;;;;;;1.98;0.57;;;10.00;66.30;;;;;;5035705;28;20098;-74
2023/03/10 09:10:54;;;;;;;1.33;0.40;;;10.10;65.10;;;;;;5053387;28;20044;-73
2023/03/10 09:13:20;;;;;;;5.78;0.77;;;9.90;65.90;;;;;;5035812;28;20477;-74
2023/03/10 09:15:45;;;;;;;5.32;0.80;;;9.60;67.50;;;;;;5053382;28;20485;-74
2023/03/10 09:18:13;;;;;;;2.58;0.70;;;9.50;69.40;;;;;;5053383;28;20054;-73
2023/03/10 09:20:40;;;;;;;3.55;0.60;;;9.30;68.20;;;;;;5053203;28;20029;-73
2023/03/10 09:23:07;;;;;;;2.47;0.45;;;9.30;69.90;;;;;;5052993;28;20611;-74
2023/03/10 09:25:33;;;;;;;3.85;0.95;;;9.40;68.50;;;;;;5052963;28;20386;-73
2023/03/10 09:27:59;;;;;;;3.25;0.60;;;9.30;69.90;;;;;;5053340;28;20040;-75
2023/03/10 09:30:25;;;;;;;2.10;0.60;;;9.20;69.60;;;;;;5053178;28;20037;-73
2023/03/10 09:32:51;;;;;;;2.75;0.70;;;9.20;71.40;;;;;;5053204;28;20021;-73
2023/03/10 09:35:17;;;;;;;6.90;0.93;;;9.10;69.60;;;;;;5052966;28;20029;-73
2023/03/10 09:37:42;;;;;;;2.03;0.63;;;9.10;72.10;;;;;;5052820;28;20412;-72
2023/03/10 09:40:17;;;;;;;2.15;0.50;;;9.10;71.90;;;;;;5053045;28;20024;-72
2023/03/10 09:42:55;;;;;;;4.82;0.88;;;9.10;74.10;;;;;;5054048;28;20521;-72
2023/03/10 09:45:24;;;;;;;2.22;0.47;;;8.90;74.60;;;;;;5053063;28;20489;-72
2023/03/10 09:48:14;;;;;;;0.73;0.50;;;8.80;72.90;;;;;;5052921;28;20047;-73
2023/03/10 09:50:45;;;;;;;3.65;0.50;;;8.70;73.60;;;;;;5052778;28;20036;-72
2023/03/10 09:53:22;;;;;;;2.63;0.40;;;8.60;75.60;;;;;;5052808;28;20021;-72
2023/03/10 09:55:48;;;;;;;2.72;0.47;;;8.60;74.90;;;;;;5052541;28;20494;-74
2023/03/10 09:58:42;;;;;;;2.15;0.40;;;8.60;74.50;;;;;;5034703;28;20106;-73
2023/03/10 10:01:17;;;;;;;3.78;0.50;;;8.50;73.40;;;;;;5032005;28;20029;-73
2023/03/10 10:03:47;;;;;;;4.35;0.55;;;8.50;76.00;;;;;;5052371;28;20362;-73
2023/03/10 10:06:34;;;;;;;1.45;0.43;;;8.50;76.50;;;;;;5034900;28;20389;-73
2023/03/10 10:09:04;;;;;;;1.65;0.43;;;8.70;75.40;;;;;;5052651;28;20025;-73
2023/03/10 10:11:30;;;;;;;3.67;0.60;;;8.80;73.40;;;;;;5052751;28;20036;-73
2023/03/10 10:14:19;;;;;;;0.68;0.30;;;8.90;73.10;;;;;;5035013;28;20021;-74
2023/03/10 10:17:03;;;;;;;1.10;0.30;;;9.00;72.70;;;;;;5052599;28;20026;-74
2023/03/10 10:19:29;;;;;;;3.20;0.63;;;9.10;72.80;;;;;;5052535;28;20025;-73
2023/03/10 10:22:09;;;;;;;1.65;0.60;;;9.10;71.20;;;;;;5052554;28;20024;-72
2023/03/10 10:24:35;;;;;;;1.33;0.30;;;9.00;70.20;;;;;;5052449;28;20154;-73
2023/03/10 10:27:00;;;;;;;1.85;0.35;;;8.90;70.90;;;;;;5052379;28;20432;-72
2023/03/10 10:29:37;;;;;;;1.55;0.50;;;8.90;71.90;;;;;;5052278;28;20027;-73
2023/03/10 10:32:15;;;;;;;2.70;0.47;;;9.00;70.80;;;;;;5052389;28;20124;-72
2023/03/10 10:34:43;;;;;;;1.33;0.52;;;9.00;72.40;;;;;;5052414;28;20497;-77
2023/03/10 10:37:27;;;;;;;1.92;0.63;;;8.90;70.20;;;;;;5052352;28;20513;-73
2023/03/10 10:39:55;;;;;;;1.05;0.43;;;8.90;71.10;;;;;;5052727;28;20021;-72
2023/03/10 10:42:31;;;;;;;4.30;0.45;;;8.80;70.00;;;;;;5052295;28;20032;-76
2023/03/10 10:44:58;;;;;;;1.67;0.10;;;8.90;70.90;;;;;;5052367;28;20036;-74
2023/03/10 10:47:31;;;;;;;1.90;0.40;;;9.00;69.30;;;;;;5055543;28;20057;-73
2023/03/10 10:50:20;;;;;;;2.20;0.77;;;9.10;69.80;;;;;;5032346;28;20334;-73
2023/03/10 10:52:52;;;;;;;1.55;0.50;;;9.20;69.10;;;;;;5038206;28;20032;-77
2023/03/10 10:55:33;;;;;;;0.73;0.38;;;9.10;68.90;;;;;;5056197;28;20025;-75
2023/03/10 10:58:02;;;;;;;2.97;0.47;;;9.00;69.60;;;;;;5055759;28;20036;-79
2023/03/10 11:00:30;;;;;;;1.98;0.22;;;9.00;70.10;;;;;;5056030;28;20355;-77
2023/03/10 11:02:56;;;;;;;5.18;0.30;;;8.90;70.30;;;;;;5036445;28;20032;-76
2023/03/10 11:05:34;;;;;;;0.82;0.30;;;8.80;70.50;;;;;;5036435;28;20045;-77
2023/03/10 11:08:38;;;;;;;1.20;0.30;;;8.80;71.60;;;;;;5035381;28;20020;-78
2023/03/10 11:11:31;;;;;;;1.85;0.50;;;9.00;68.70;;;;;;5036170;28;20041;-74
2023/03/10 11:14:29;;;;;;;1.45;0.52;;;9.10;69.10;;;;;;5034545;28;20013;-73
2023/03/10 11:17:09;;;;;;;2.05;0.50;;;9.20;69.60;;;;;;5031835;28;20036;-75
2023/03/10 11:19:49;;;;;;;1.60;0.32;;;9.20;70.30;;;;;;5031668;28;20021;-77
2023/03/10 11:22:46;;;;;;;1.98;0.20;;;9.20;69.50;;;;;;5034367;28;20689;-74
2023/03/10 11:25:28;;;;;;;2.08;0.50;;;9.20;71.40;;;;;;5036726;28;20144;-74
2023/03/10 11:28:08;;;;;;;0.73;0.30;;;9.00;70.50;;;;;;5034146;28;20021;-73
2023/03/10 11:30:42;;;;;;;2.42;0.50;;;8.80;70.80;;;;;;5033643;28;20024;-73
2023/03/10 11:33:13;;;;;;;1.25;0.30;;;8.90;70.30;;;;;;5036251;28;20436;-75
2023/03/10 11:35:44;;;;;;;1.60;0.47;;;9.20;69.60;;;;;;5036362;28;20021;-76
2023/03/10 11:38:10;;;;;;;1.17;0.60;;;9.10;70.10;;;;;;5036595;28;20021;-76
2023/03/10 11:40:41;;;;;;;0.55;0.30;;;9.10;70.50;;;;;;5036865;28;20445;-75
2023/03/10 11:43:18;;;;;;;1.63;0.50;;;9.10;70.30;;;;;;5035839;28;20036;-76
2023/03/10 11:45:54;;;;;;;1.17;0.50;;;9.30;71.70;;;;;;5035064;28;20389;-77
2023/03/10 11:48:40;;;;;;;0.20;0.20;;;9.60;69.90;;;;;;5033175;28;20036;-76
2023/03/10 11:51:16;;;;;;;1.00;0.40;;;9.90;67.40;;;;;;5034319;28;20115;-76
2023/03/10 11:53:50;;;;;;;2.97;0.52;;;10.00;66.00;;;;;;5020534;28;20036;-77
2023/03/10 11:56:20;;;;;;;2.15;0.45;;;9.70;66.60;;;;;;5054997;28;20098;-76
2023/03/10 11:59:08;;;;;;;1.17;0.35;;;9.80;67.70;;;;;;5054972;28;20021;-76
2023/03/10 12:01:50;;;;;;;1.05;0.20;;;9.90;67.10;;;;;;5036304;28;20100;-76
2023/03/10 12:05:06;;;;;;;0.40;0.20;;;9.80;64.30;;;;;;5036297;28;20048;-79
2023/03/10 12:07:47;;;;;;;1.35;0.30;;;9.60;66.50;;;;;;5049155;28;20059;-76
2023/03/10 12:10:15;;;;;;;0.28;0.25;;;9.60;65.70;;;;;;5036875;28;20106;-76
2023/03/10 12:12:43;;;;;;;0.35;0.10;;;9.50;65.50;;;;;;5036567;28;20039;-75
2023/03/10 12:15:23;;;;;;;0.82;0.30;;;9.20;66.90;;;;;;5020173;28;20120;-75
2023/03/10 12:17:51;;;;;;;1.95;0.20;;;9.20;67.60;;;;;;5036835;28;20087;-76
2023/03/10 12:20:20;;;;;;;0.20;0.20;;;9.20;68.50;;;;;;5036804;28;20082;-76
2023/03/10 12:22:50;;;;;;;0.63;0.10;;;9.20;69.20;;;;;;5036860;28;20029;-76
2023/03/10 12:25:28;;;;;;;2.47;0.20;;;9.10;69.50;;;;;;5036769;28;20029;-76
2023/03/10 12:28:16;;;;;;;0.30;0.25;;;9.20;70.50;;;;;;5036448;28;20032;-75
2023/03/10 12:30:51;;;;;;;0.40;0.20;;;9.20;70.30;;;;;;5036198;28;20025;-76
2023/03/10 12:33:41;;;;;;;1.30;0.30;;;9.10;70.10;;;;;;5035763;28;20114;-78
2023/03/10 12:36:08;;;;;;;0.28;0.10;;;8.90;71.80;;;;;;5036193;28;20068;-74
2023/03/10 12:38:58;;;;;;;0.80;0.10;;;8.60;71.60;;;;;;5036372;28;20025;-76
2023/03/10 12:41:27;;;;;;;0.20;0.10;;;8.60;73.30;;;;;;5036337;28;20029;-76
2023/03/10 12:44:01;;;;;;;0.20;0.10;;;8.50;73.90;;;;;;5036088;28;20029;-78
2023/03/10 12:46:57;;;;;;;0.20;0.17;;;8.40;74.10;;;;;;5054180;28;20040;-76
2023/03/10 12:49:46;;;;;;;0.57;0.25;;;8.30;74.00;;;;;;5035310;28;20033;-76
2023/03/10 12:52:20;;;;;;;1.65;0.40;;;8.20;75.70;;;;;;5052699;28;20048;-74
2023/03/10 12:55:12;;;;;;;1.15;0.20;;;8.20;75.80;;;;;;5036304;28;20036;-72
2023/03/10 12:57:46;;;;;;;0.10;0.10;;;8.20;75.30;;;;;;5035699;28;20071;-74
2023/03/10 13:00:34;;;;;;;0.50;0.10;;;8.10;75.10;;;;;;5036191;28;20474;-74
2023/03/10 13:03:08;;;;;;;0.30;0.20;;;7.90;75.50;;;;;;5035683;28;20032;-74
2023/03/10 13:05:41;;;;;;;2.20;0.35;;;7.90;76.80;;;;;;5053582;28;20041;-76
2023/03/10 13:08:48;;;;;;;1.65;0.20;;;7.90;76.70;;;;;;5035269;28;20363;-76